sensor_id;sensor_type;location;lat;lon;timestamp;temperature;humidity
64620;DHT22;51029;51.058;13.826;2023-04-03T00:00:53;3.20;99.90
64620;DHT22;51029;51.058;13.826;2023-04-03T00:03:19;3.20;99.90
64620;DHT22;51029;51.058;13.826;2023-04-03T00:05:46;3.20;99.90
64620;DHT22;51029;51.058;13.826;2023-04-03T00:08:11;3.10;99.90
64620;DHT22;51029;51.058;13.826;2023-04-03T00:10:37;3.10;99.90
64620;DHT22;51029;51.058;13.826;2023-04-03T00:13:04;3.10;99.90
64620;DHT22;51029;51.058;13.826;2023-04-03T00:15:30;3.10;99.90
64620;DHT22;51029;51.058;13.826;2023-04-03T00:17:56;3.10;99.90
64620;DHT22;51029;51.058;13.826;2023-04-03T00:20:21;3.10;99.90
64620;DHT22;51029;51.058;13.826;2023-04-03T00:22:47;3.10;99.90
64620;DHT22;51029;51.058;13.826;2023-04-03T00:25:12;3.00;99.90
64620;DHT22;51029;51.058;13.826;2023-04-03T00:27:38;3.00;99.90
64620;DHT22;51029;51.058;13.826;2023-04-03T00:30:06;2.90;99.90
64620;DHT22;51029;51.058;13.826;2023-04-03T00:32:32;3.00;99.90
64620;DHT22;51029;51.058;13.826;2023-04-03T00:34:58;3.00;99.90
64620;DHT22;51029;51.058;13.826;2023-04-03T00:37:24;3.00;99.90
64620;DHT22;51029;51.058;13.826;2023-04-03T00:39:49;3.10;99.90
64620;DHT22;51029;51.058;13.826;2023-04-03T00:42:15;3.10;99.90
64620;DHT22;51029;51.058;13.826;2023-04-03T00:47:09;3.10;99.90
64620;DHT22;51029;51.058;13.826;2023-04-03T00:49:37;3.10;99.90
64620;DHT22;51029;51.058;13.826;2023-04-03T00:52:05;3.10;99.90
64620;DHT22;51029;51.058;13.826;2023-04-03T00:54:32;3.10;99.90
64620;DHT22;51029;51.058;13.826;2023-04-03T00:57:00;3.00;99.90
64620;DHT22;51029;51.058;13.826;2023-04-03T00:59:31;3.00;99.90
64620;DHT22;51029;51.058;13.826;2023-04-03T01:01:58;3.00;99.90
64620;DHT22;51029;51.058;13.826;2023-04-03T01:04:37;3.00;99.90
64620;DHT22;51029;51.058;13.826;2023-04-03T01:07:17;3.00;99.90
64620;DHT22;51029;51.058;13.826;2023-04-03T01:09:44;2.90;99.90
64620;DHT22;51029;51.058;13.826;2023-04-03T01:14:50;2.90;99.90
64620;DHT22;51029;51.058;13.826;2023-04-03T01:17:29;2.90;99.90
64620;DHT22;51029;51.058;13.826;2023-04-03T01:25:58;2.80;99.90
64620;DHT22;51029;51.058;13.826;2023-04-03T01:28:28;2.80;99.90
64620;DHT22;51029;51.058;13.826;2023-04-03T01:33:39;2.80;99.90
64620;DHT22;51029;51.058;13.826;2023-04-03T01:36:05;2.70;99.90
64620;DHT22;51029;51.058;13.826;2023-04-03T01:38:31;2.70;99.90
64620;DHT22;51029;51.058;13.826;2023-04-03T01:40:57;2.70;99.90
64620;DHT22;51029;51.058;13.826;2023-04-03T01:43:22;2.60;99.90
64620;DHT22;51029;51.058;13.826;2023-04-03T01:45:48;2.60;99.90
64620;DHT22;51029;51.058;13.826;2023-04-03T01:48:15;2.50;99.90
64620;DHT22;51029;51.058;13.826;2023-04-03T01:50:41;2.50;99.90
64620;DHT22;51029;51.058;13.826;2023-04-03T01:53:07;2.40;99.90
64620;DHT22;51029;51.058;13.826;2023-04-03T01:55:32;2.40;99.90
64620;DHT22;51029;51.058;13.826;2023-04-03T01:57:58;2.40;99.90
64620;DHT22;51029;51.058;13.826;2023-04-03T02:00:23;2.40;99.90
64620;DHT22;51029;51.058;13.826;2023-04-03T02:02:49;2.30;99.90
64620;DHT22;51029;51.058;13.826;2023-04-03T02:05:15;2.20;99.90
64620;DHT22;51029;51.058;13.826;2023-04-03T02:07:40;2.20;99.90
64620;DHT22;51029;51.058;13.826;2023-04-03T02:10:06;2.20;99.90
64620;DHT22;51029;51.058;13.826;2023-04-03T02:12:32;2.10;99.90
64620;DHT22;51029;51.058;13.826;2023-04-03T02:14:58;2.10;99.90
64620;DHT22;51029;51.058;13.826;2023-04-03T02:17:23;2.00;99.90
64620;DHT22;51029;51.058;13.826;2023-04-03T02:19:49;1.90;99.90
64620;DHT22;51029;51.058;13.826;2023-04-03T02:22:14;1.80;99.90
64620;DHT22;51029;51.058;13.826;2023-04-03T02:24:40;1.80;99.90
64620;DHT22;51029;51.058;13.826;2023-04-03T02:27:06;1.70;99.90
64620;DHT22;51029;51.058;13.826;2023-04-03T02:29:32;1.70;99.90
64620;DHT22;51029;51.058;13.826;2023-04-03T02:31:57;1.70;99.90
64620;DHT22;51029;51.058;13.826;2023-04-03T02:34:23;1.70;99.90
64620;DHT22;51029;51.058;13.826;2023-04-03T02:36:48;1.70;99.90
64620;DHT22;51029;51.058;13.826;2023-04-03T02:39:14;1.60;99.90
64620;DHT22;51029;51.058;13.826;2023-04-03T02:41:41;1.60;99.90
64620;DHT22;51029;51.058;13.826;2023-04-03T02:44:08;1.60;99.90
64620;DHT22;51029;51.058;13.826;2023-04-03T02:46:34;1.50;99.90
64620;DHT22;51029;51.058;13.826;2023-04-03T02:48:59;1.40;99.90
64620;DHT22;51029;51.058;13.826;2023-04-03T02:51:25;1.30;99.90
64620;DHT22;51029;51.058;13.826;2023-04-03T02:53:50;1.20;99.90
64620;DHT22;51029;51.058;13.826;2023-04-03T02:56:17;1.10;99.90
64620;DHT22;51029;51.058;13.826;2023-04-03T02:58:43;1.10;99.90
64620;DHT22;51029;51.058;13.826;2023-04-03T03:01:10;1.00;99.90
64620;DHT22;51029;51.058;13.826;2023-04-03T03:03:35;0.90;99.90
64620;DHT22;51029;51.058;13.826;2023-04-03T03:08:31;0.80;99.90
64620;DHT22;51029;51.058;13.826;2023-04-03T03:10:56;0.70;99.90
64620;DHT22;51029;51.058;13.826;2023-04-03T03:13:22;0.70;99.90
64620;DHT22;51029;51.058;13.826;2023-04-03T03:15:47;0.70;99.90
64620;DHT22;51029;51.058;13.826;2023-04-03T03:18:13;0.60;99.90
64620;DHT22;51029;51.058;13.826;2023-04-03T03:20:39;0.50;99.90
64620;DHT22;51029;51.058;13.826;2023-04-03T03:23:04;0.50;99.90
64620;DHT22;51029;51.058;13.826;2023-04-03T03:25:30;0.50;99.90
64620;DHT22;51029;51.058;13.826;2023-04-03T03:27:55;0.40;99.90
64620;DHT22;51029;51.058;13.826;2023-04-03T03:30:21;0.30;99.90
64620;DHT22;51029;51.058;13.826;2023-04-03T03:32:46;0.30;99.90
64620;DHT22;51029;51.058;13.826;2023-04-03T03:35:12;0.30;99.90
64620;DHT22;51029;51.058;13.826;2023-04-03T03:37:37;0.20;99.90
64620;DHT22;51029;51.058;13.826;2023-04-03T03:40:03;0.20;99.90
64620;DHT22;51029;51.058;13.826;2023-04-03T03:42:28;0.20;99.90
64620;DHT22;51029;51.058;13.826;2023-04-03T03:44:54;0.10;99.90
64620;DHT22;51029;51.058;13.826;2023-04-03T03:47:20;0.10;99.90
64620;DHT22;51029;51.058;13.826;2023-04-03T03:49:45;0.10;99.90
64620;DHT22;51029;51.058;13.826;2023-04-03T03:52:11;0.00;99.90
64620;DHT22;51029;51.058;13.826;2023-04-03T03:54:37;0.00;99.90
64620;DHT22;51029;51.058;13.826;2023-04-03T03:57:03;0.00;99.90
64620;DHT22;51029;51.058;13.826;2023-04-03T03:59:28;0.00;99.90
64620;DHT22;51029;51.058;13.826;2023-04-03T04:01:54;-0.10;99.90
64620;DHT22;51029;51.058;13.826;2023-04-03T04:04:20;0.00;99.90
64620;DHT22;51029;51.058;13.826;2023-04-03T04:06:46;-0.10;99.90
64620;DHT22;51029;51.058;13.826;2023-04-03T04:09:11;-0.10;99.90
64620;DHT22;51029;51.058;13.826;2023-04-03T04:11:37;-0.20;99.90
64620;DHT22;51029;51.058;13.826;2023-04-03T04:14:05;-0.20;99.90
64620;DHT22;51029;51.058;13.826;2023-04-03T04:16:30;-0.20;99.90
64620;DHT22;51029;51.058;13.826;2023-04-03T04:18:56;-0.20;99.90
64620;DHT22;51029;51.058;13.826;2023-04-03T04:21:21;-0.20;99.90
64620;DHT22;51029;51.058;13.826;2023-04-03T04:23:47;-0.20;99.90
64620;DHT22;51029;51.058;13.826;2023-04-03T04:26:12;-0.30;99.90
64620;DHT22;51029;51.058;13.826;2023-04-03T04:28:38;-0.30;99.90
64620;DHT22;51029;51.058;13.826;2023-04-03T04:31:03;-0.30;99.90
64620;DHT22;51029;51.058;13.826;2023-04-03T04:33:29;-0.30;99.90
64620;DHT22;51029;51.058;13.826;2023-04-03T04:35:55;-0.40;99.90
64620;DHT22;51029;51.058;13.826;2023-04-03T04:38:20;-0.40;99.90
64620;DHT22;51029;51.058;13.826;2023-04-03T04:40:47;-0.40;99.90
64620;DHT22;51029;51.058;13.826;2023-04-03T04:43:13;-0.40;99.90
64620;DHT22;51029;51.058;13.826;2023-04-03T04:45:40;-0.40;99.90
64620;DHT22;51029;51.058;13.826;2023-04-03T04:48:05;-0.40;99.90
64620;DHT22;51029;51.058;13.826;2023-04-03T04:50:31;-0.40;99.90
64620;DHT22;51029;51.058;13.826;2023-04-03T04:52:56;-0.40;99.90
64620;DHT22;51029;51.058;13.826;2023-04-03T04:55:22;-0.40;99.90
64620;DHT22;51029;51.058;13.826;2023-04-03T04:57:48;-0.40;99.90
64620;DHT22;51029;51.058;13.826;2023-04-03T05:00:14;-0.30;99.90
64620;DHT22;51029;51.058;13.826;2023-04-03T05:02:40;-0.20;99.90
64620;DHT22;51029;51.058;13.826;2023-04-03T05:05:06;-0.20;99.90
64620;DHT22;51029;51.058;13.826;2023-04-03T05:07:32;0.00;99.90
64620;DHT22;51029;51.058;13.826;2023-04-03T05:09:57;0.00;99.90
64620;DHT22;51029;51.058;13.826;2023-04-03T05:12:23;0.00;99.90
64620;DHT22;51029;51.058;13.826;2023-04-03T05:14:48;0.00;99.90
64620;DHT22;51029;51.058;13.826;2023-04-03T05:17:14;0.10;99.90
64620;DHT22;51029;51.058;13.826;2023-04-03T05:19:39;0.10;99.90
64620;DHT22;51029;51.058;13.826;2023-04-03T05:22:05;0.10;99.90
64620;DHT22;51029;51.058;13.826;2023-04-03T05:24:31;0.10;99.90
64620;DHT22;51029;51.058;13.826;2023-04-03T05:26:56;0.10;99.90
64620;DHT22;51029;51.058;13.826;2023-04-03T05:29:22;0.20;99.90
64620;DHT22;51029;51.058;13.826;2023-04-03T05:31:49;0.10;99.90
64620;DHT22;51029;51.058;13.826;2023-04-03T05:34:15;0.20;99.90
64620;DHT22;51029;51.058;13.826;2023-04-03T05:36:41;0.20;99.90
64620;DHT22;51029;51.058;13.826;2023-04-03T05:39:06;0.20;99.90
64620;DHT22;51029;51.058;13.826;2023-04-03T05:41:32;0.30;99.90
64620;DHT22;51029;51.058;13.826;2023-04-03T05:43:57;0.40;99.90
64620;DHT22;51029;51.058;13.826;2023-04-03T05:46:23;0.50;99.90
64620;DHT22;51029;51.058;13.826;2023-04-03T05:48:49;0.50;99.90
64620;DHT22;51029;51.058;13.826;2023-04-03T05:51:33;0.60;99.90
64620;DHT22;51029;51.058;13.826;2023-04-03T05:54:06;0.60;99.90
64620;DHT22;51029;51.058;13.826;2023-04-03T05:56:32;0.60;99.90
64620;DHT22;51029;51.058;13.826;2023-04-03T05:58:58;0.60;99.90
64620;DHT22;51029;51.058;13.826;2023-04-03T06:01:23;0.70;99.90
64620;DHT22;51029;51.058;13.826;2023-04-03T06:03:49;0.80;99.90
64620;DHT22;51029;51.058;13.826;2023-04-03T06:06:15;0.80;99.90
64620;DHT22;51029;51.058;13.826;2023-04-03T06:08:40;0.90;99.90
64620;DHT22;51029;51.058;13.826;2023-04-03T06:11:06;1.10;99.90
64620;DHT22;51029;51.058;13.826;2023-04-03T06:13:33;1.20;99.90
64620;DHT22;51029;51.058;13.826;2023-04-03T06:16:00;1.40;99.90
64620;DHT22;51029;51.058;13.826;2023-04-03T06:18:26;1.50;99.90
64620;DHT22;51029;51.058;13.826;2023-04-03T06:20:51;1.70;99.90
64620;DHT22;51029;51.058;13.826;2023-04-03T06:23:17;1.80;99.90
64620;DHT22;51029;51.058;13.826;2023-04-03T06:25:42;1.90;99.90
64620;DHT22;51029;51.058;13.826;2023-04-03T06:28:08;2.10;99.90
64620;DHT22;51029;51.058;13.826;2023-04-03T06:30:35;2.20;99.90
64620;DHT22;51029;51.058;13.826;2023-04-03T06:33:01;2.40;99.90
64620;DHT22;51029;51.058;13.826;2023-04-03T06:35:27;2.60;99.90
64620;DHT22;51029;51.058;13.826;2023-04-03T06:37:54;2.70;99.90
64620;DHT22;51029;51.058;13.826;2023-04-03T06:40:22;2.80;99.90
64620;DHT22;51029;51.058;13.826;2023-04-03T06:42:48;2.80;99.90
64620;DHT22;51029;51.058;13.826;2023-04-03T06:45:14;3.00;99.90
64620;DHT22;51029;51.058;13.826;2023-04-03T06:47:40;2.90;99.90
64620;DHT22;51029;51.058;13.826;2023-04-03T06:50:06;3.00;99.90
64620;DHT22;51029;51.058;13.826;2023-04-03T06:52:32;3.10;99.90
64620;DHT22;51029;51.058;13.826;2023-04-03T06:54:57;3.20;99.90
64620;DHT22;51029;51.058;13.826;2023-04-03T06:57:25;3.30;99.90
64620;DHT22;51029;51.058;13.826;2023-04-03T06:59:50;3.40;99.90
64620;DHT22;51029;51.058;13.826;2023-04-03T07:02:16;3.40;99.90
64620;DHT22;51029;51.058;13.826;2023-04-03T07:04:42;3.50;99.90
64620;DHT22;51029;51.058;13.826;2023-04-03T07:07:07;3.60;99.90
64620;DHT22;51029;51.058;13.826;2023-04-03T07:09:33;3.60;99.90
64620;DHT22;51029;51.058;13.826;2023-04-03T07:11:59;3.60;99.90
64620;DHT22;51029;51.058;13.826;2023-04-03T07:14:25;3.70;99.90
64620;DHT22;51029;51.058;13.826;2023-04-03T07:16:50;3.80;99.90
64620;DHT22;51029;51.058;13.826;2023-04-03T07:19:17;3.90;99.90
64620;DHT22;51029;51.058;13.826;2023-04-03T07:21:44;4.00;99.90
64620;DHT22;51029;51.058;13.826;2023-04-03T07:24:10;4.00;99.90
64620;DHT22;51029;51.058;13.826;2023-04-03T07:26:35;4.00;99.90
64620;DHT22;51029;51.058;13.826;2023-04-03T07:29:01;3.90;99.90
64620;DHT22;51029;51.058;13.826;2023-04-03T07:31:27;3.90;99.90
64620;DHT22;51029;51.058;13.826;2023-04-03T07:33:52;4.00;99.90
64620;DHT22;51029;51.058;13.826;2023-04-03T07:36:21;4.00;99.90
64620;DHT22;51029;51.058;13.826;2023-04-03T07:38:47;4.00;99.90
64620;DHT22;51029;51.058;13.826;2023-04-03T07:41:14;3.90;99.90
64620;DHT22;51029;51.058;13.826;2023-04-03T07:43:40;3.60;99.90
64620;DHT22;51029;51.058;13.826;2023-04-03T07:46:07;3.60;99.90
64620;DHT22;51029;51.058;13.826;2023-04-03T07:48:33;3.70;99.90
64620;DHT22;51029;51.058;13.826;2023-04-03T07:51:01;3.60;99.90
64620;DHT22;51029;51.058;13.826;2023-04-03T07:53:28;3.40;99.90
64620;DHT22;51029;51.058;13.826;2023-04-03T07:55:53;3.60;99.90
64620;DHT22;51029;51.058;13.826;2023-04-03T07:58:21;3.70;99.90
64620;DHT22;51029;51.058;13.826;2023-04-03T08:00:47;3.90;99.90
64620;DHT22;51029;51.058;13.826;2023-04-03T08:03:13;4.10;99.90
64620;DHT22;51029;51.058;13.826;2023-04-03T08:05:43;4.10;99.90
64620;DHT22;51029;51.058;13.826;2023-04-03T08:08:11;4.20;99.90
64620;DHT22;51029;51.058;13.826;2023-04-03T08:10:37;4.20;99.90
64620;DHT22;51029;51.058;13.826;2023-04-03T08:13:03;4.30;99.90
64620;DHT22;51029;51.058;13.826;2023-04-03T08:15:30;4.20;99.90
64620;DHT22;51029;51.058;13.826;2023-04-03T08:17:56;4.30;99.90
64620;DHT22;51029;51.058;13.826;2023-04-03T08:20:22;4.30;99.90
64620;DHT22;51029;51.058;13.826;2023-04-03T08:22:47;4.50;99.90
64620;DHT22;51029;51.058;13.826;2023-04-03T08:25:13;4.60;99.90
64620;DHT22;51029;51.058;13.826;2023-04-03T08:27:39;4.80;99.90
64620;DHT22;51029;51.058;13.826;2023-04-03T08:30:05;4.60;99.90
64620;DHT22;51029;51.058;13.826;2023-04-03T08:32:33;4.60;99.90
64620;DHT22;51029;51.058;13.826;2023-04-03T08:34:58;4.60;99.90
64620;DHT22;51029;51.058;13.826;2023-04-03T08:37:24;4.40;99.90
64620;DHT22;51029;51.058;13.826;2023-04-03T08:39:50;4.40;99.90
64620;DHT22;51029;51.058;13.826;2023-04-03T08:42:50;4.40;99.90
64620;DHT22;51029;51.058;13.826;2023-04-03T08:45:31;4.30;99.90
64620;DHT22;51029;51.058;13.826;2023-04-03T08:48:04;4.40;99.90
64620;DHT22;51029;51.058;13.826;2023-04-03T08:50:36;4.70;99.90
64620;DHT22;51029;51.058;13.826;2023-04-03T08:53:03;5.10;99.90
64620;DHT22;51029;51.058;13.826;2023-04-03T08:55:36;5.30;99.90
64620;DHT22;51029;51.058;13.826;2023-04-03T08:58:07;5.50;99.90
64620;DHT22;51029;51.058;13.826;2023-04-03T09:00:43;5.90;99.90
64620;DHT22;51029;51.058;13.826;2023-04-03T09:03:15;5.80;99.90
64620;DHT22;51029;51.058;13.826;2023-04-03T09:08:21;5.40;99.90
64620;DHT22;51029;51.058;13.826;2023-04-03T09:10:49;5.80;99.90
64620;DHT22;51029;51.058;13.826;2023-04-03T09:13:24;6.30;99.90
64620;DHT22;51029;51.058;13.826;2023-04-03T09:15:53;6.60;99.90
64620;DHT22;51029;51.058;13.826;2023-04-03T09:18:22;6.50;99.90
64620;DHT22;51029;51.058;13.826;2023-04-03T09:21:01;6.70;99.90
64620;DHT22;51029;51.058;13.826;2023-04-03T09:26:06;7.60;99.90
64620;DHT22;51029;51.058;13.826;2023-04-03T09:28:39;7.40;99.90
64620;DHT22;51029;51.058;13.826;2023-04-03T09:33:47;8.00;99.90
64620;DHT22;51029;51.058;13.826;2023-04-03T09:36:39;7.60;99.90
64620;DHT22;51029;51.058;13.826;2023-04-03T09:39:13;7.00;99.90
64620;DHT22;51029;51.058;13.826;2023-04-03T09:41:40;6.60;99.90
64620;DHT22;51029;51.058;13.826;2023-04-03T09:44:21;6.60;99.90
64620;DHT22;51029;51.058;13.826;2023-04-03T09:46:47;7.00;99.90
64620;DHT22;51029;51.058;13.826;2023-04-03T09:49:13;7.40;99.90
64620;DHT22;51029;51.058;13.826;2023-04-03T09:51:38;7.50;99.90
64620;DHT22;51029;51.058;13.826;2023-04-03T09:54:32;7.70;99.00
64620;DHT22;51029;51.058;13.826;2023-04-03T09:57:06;8.50;98.80
64620;DHT22;51029;51.058;13.826;2023-04-03T09:59:33;9.20;95.10
64620;DHT22;51029;51.058;13.826;2023-04-03T10:02:03;9.50;92.10
64620;DHT22;51029;51.058;13.826;2023-04-03T10:04:40;11.70;86.20
64620;DHT22;51029;51.058;13.826;2023-04-03T10:07:30;14.20;70.80
64620;DHT22;51029;51.058;13.826;2023-04-03T10:09:58;16.00;57.10
64620;DHT22;51029;51.058;13.826;2023-04-03T10:12:24;15.40;47.20
64620;DHT22;51029;51.058;13.826;2023-04-03T10:19:57;11.10;52.90
64620;DHT22;51029;51.058;13.826;2023-04-03T10:22:44;10.00;59.00
64620;DHT22;51029;51.058;13.826;2023-04-03T10:33:55;9.60;69.10
64620;DHT22;51029;51.058;13.826;2023-04-03T10:36:50;9.90;69.30
64620;DHT22;51029;51.058;13.826;2023-04-03T10:39:32;10.70;62.60
64620;DHT22;51029;51.058;13.826;2023-04-03T10:47:33;14.60;54.40
64620;DHT22;51029;51.058;13.826;2023-04-03T10:55:43;14.10;37.10
64620;DHT22;51029;51.058;13.826;2023-04-03T10:58:32;12.00;40.70
64620;DHT22;51029;51.058;13.826;2023-04-03T11:01:06;9.80;45.10
64620;DHT22;51029;51.058;13.826;2023-04-03T11:03:56;9.00;50.80
64620;DHT22;51029;51.058;13.826;2023-04-03T11:06:25;9.20;54.10
64620;DHT22;51029;51.058;13.826;2023-04-03T11:08:58;9.70;56.00
64620;DHT22;51029;51.058;13.826;2023-04-03T11:11:31;9.70;52.10
64620;DHT22;51029;51.058;13.826;2023-04-03T11:14:10;10.60;50.50
64620;DHT22;51029;51.058;13.826;2023-04-03T11:16:43;10.60;48.20
64620;DHT22;51029;51.058;13.826;2023-04-03T11:19:36;10.00;46.70
64620;DHT22;51029;51.058;13.826;2023-04-03T11:22:23;9.80;48.70
64620;DHT22;51029;51.058;13.826;2023-04-03T11:25:04;9.50;48.50
64620;DHT22;51029;51.058;13.826;2023-04-03T11:27:54;9.50;49.20
64620;DHT22;51029;51.058;13.826;2023-04-03T11:30:25;11.50;50.30
64620;DHT22;51029;51.058;13.826;2023-04-03T11:35:22;13.50;42.60
64620;DHT22;51029;51.058;13.826;2023-04-03T11:37:50;12.70;42.80
64620;DHT22;51029;51.058;13.826;2023-04-03T11:40:29;11.30;41.80
64620;DHT22;51029;51.058;13.826;2023-04-03T11:46:01;10.00;46.00
64620;DHT22;51029;51.058;13.826;2023-04-03T11:50:55;11.50;45.80
64620;DHT22;51029;51.058;13.826;2023-04-03T11:53:36;12.80;44.50
64620;DHT22;51029;51.058;13.826;2023-04-03T12:01:54;10.70;46.40
64620;DHT22;51029;51.058;13.826;2023-04-03T12:04:22;9.90;49.50
64620;DHT22;51029;51.058;13.826;2023-04-03T12:09:29;9.50;52.20
64620;DHT22;51029;51.058;13.826;2023-04-03T12:11:56;9.60;53.00
64620;DHT22;51029;51.058;13.826;2023-04-03T12:14:24;10.60;51.10
64620;DHT22;51029;51.058;13.826;2023-04-03T12:16:52;10.40;50.60
64620;DHT22;51029;51.058;13.826;2023-04-03T12:19:34;9.40;50.20
64620;DHT22;51029;51.058;13.826;2023-04-03T12:24:37;8.70;53.00
64620;DHT22;51029;51.058;13.826;2023-04-03T12:27:14;8.60;52.30
64620;DHT22;51029;51.058;13.826;2023-04-03T12:33:13;8.90;53.60
64620;DHT22;51029;51.058;13.826;2023-04-03T12:41:45;8.50;53.40
64620;DHT22;51029;51.058;13.826;2023-04-03T12:44:35;8.60;54.00
64620;DHT22;51029;51.058;13.826;2023-04-03T12:47:33;8.30;54.20
64620;DHT22;51029;51.058;13.826;2023-04-03T12:50:02;7.60;56.00
64620;DHT22;51029;51.058;13.826;2023-04-03T12:52:37;7.30;60.10
64620;DHT22;51029;51.058;13.826;2023-04-03T12:55:08;7.30;62.60
64620;DHT22;51029;51.058;13.826;2023-04-03T12:57:39;7.50;64.70
64620;DHT22;51029;51.058;13.826;2023-04-03T13:00:25;8.10;63.60
64620;DHT22;51029;51.058;13.826;2023-04-03T13:02:51;9.20;62.10
64620;DHT22;51029;51.058;13.826;2023-04-03T13:05:19;9.90;58.90
64620;DHT22;51029;51.058;13.826;2023-04-03T13:08:04;10.70;55.00
64620;DHT22;51029;51.058;13.826;2023-04-03T13:10:32;11.20;51.20
64620;DHT22;51029;51.058;13.826;2023-04-03T13:13:07;10.50;48.70
64620;DHT22;51029;51.058;13.826;2023-04-03T13:15:47;10.30;49.60
64620;DHT22;51029;51.058;13.826;2023-04-03T13:18:32;9.90;50.80
64620;DHT22;51029;51.058;13.826;2023-04-03T13:21:07;9.60;50.20
64620;DHT22;51029;51.058;13.826;2023-04-03T13:23:38;9.30;52.40
64620;DHT22;51029;51.058;13.826;2023-04-03T13:26:06;9.00;53.70
64620;DHT22;51029;51.058;13.826;2023-04-03T13:28:33;8.20;55.20
64620;DHT22;51029;51.058;13.826;2023-04-03T13:33:57;7.90;60.20
64620;DHT22;51029;51.058;13.826;2023-04-03T13:36:29;7.80;62.10
64620;DHT22;51029;51.058;13.826;2023-04-03T13:39:01;7.90;62.70
64620;DHT22;51029;51.058;13.826;2023-04-03T13:41:37;8.10;61.90
64620;DHT22;51029;51.058;13.826;2023-04-03T13:46:52;8.50;62.10
64620;DHT22;51029;51.058;13.826;2023-04-03T13:49:36;9.00;61.20
64620;DHT22;51029;51.058;13.826;2023-04-03T13:52:26;9.90;58.20
64620;DHT22;51029;51.058;13.826;2023-04-03T13:54:58;12.80;53.00
64620;DHT22;51029;51.058;13.826;2023-04-03T13:57:24;16.20;46.80
64620;DHT22;51029;51.058;13.826;2023-04-03T13:59:51;17.30;40.80
64620;DHT22;51029;51.058;13.826;2023-04-03T14:02:29;17.50;37.20
64620;DHT22;51029;51.058;13.826;2023-04-03T14:04:57;17.90;36.10
64620;DHT22;51029;51.058;13.826;2023-04-03T14:07:26;21.10;32.20
64620;DHT22;51029;51.058;13.826;2023-04-03T14:09:52;18.30;29.30
64620;DHT22;51029;51.058;13.826;2023-04-03T14:12:26;15.70;30.20
64620;DHT22;51029;51.058;13.826;2023-04-03T14:14:52;13.60;33.10
64620;DHT22;51029;51.058;13.826;2023-04-03T14:17:21;12.10;36.40
64620;DHT22;51029;51.058;13.826;2023-04-03T14:19:49;10.60;38.30
64620;DHT22;51029;51.058;13.826;2023-04-03T14:22:32;9.70;42.90
64620;DHT22;51029;51.058;13.826;2023-04-03T14:24:58;9.40;45.80
64620;DHT22;51029;51.058;13.826;2023-04-03T14:27:36;9.10;47.80
64620;DHT22;51029;51.058;13.826;2023-04-03T14:30:05;8.90;49.90
64620;DHT22;51029;51.058;13.826;2023-04-03T14:32:31;8.60;50.40
64620;DHT22;51029;51.058;13.826;2023-04-03T14:34:57;8.70;52.40
64620;DHT22;51029;51.058;13.826;2023-04-03T14:37:25;9.00;51.80
64620;DHT22;51029;51.058;13.826;2023-04-03T14:39:53;13.10;50.60
64620;DHT22;51029;51.058;13.826;2023-04-03T14:42:23;17.10;41.10
64620;DHT22;51029;51.058;13.826;2023-04-03T14:44:49;14.90;35.00
64620;DHT22;51029;51.058;13.826;2023-04-03T14:47:18;13.10;36.80
64620;DHT22;51029;51.058;13.826;2023-04-03T14:49:44;11.50;39.90
64620;DHT22;51029;51.058;13.826;2023-04-03T14:52:28;10.30;43.00
64620;DHT22;51029;51.058;13.826;2023-04-03T14:54:54;9.60;47.00
64620;DHT22;51029;51.058;13.826;2023-04-03T14:57:23;8.90;49.30
64620;DHT22;51029;51.058;13.826;2023-04-03T14:59:49;8.70;53.40
64620;DHT22;51029;51.058;13.826;2023-04-03T15:02:25;8.50;56.20
64620;DHT22;51029;51.058;13.826;2023-04-03T15:04:51;8.20;56.80
64620;DHT22;51029;51.058;13.826;2023-04-03T15:07:17;7.90;56.50
64620;DHT22;51029;51.058;13.826;2023-04-03T15:09:43;7.50;58.20
64620;DHT22;51029;51.058;13.826;2023-04-03T15:12:09;7.20;60.20
64620;DHT22;51029;51.058;13.826;2023-04-03T15:14:35;7.00;64.00
64620;DHT22;51029;51.058;13.826;2023-04-03T15:17:01;7.10;65.80
64620;DHT22;51029;51.058;13.826;2023-04-03T15:19:27;7.20;64.70
64620;DHT22;51029;51.058;13.826;2023-04-03T15:21:52;11.00;59.50
64620;DHT22;51029;51.058;13.826;2023-04-03T15:24:18;15.10;49.10
64620;DHT22;51029;51.058;13.826;2023-04-03T15:26:43;17.80;38.70
64620;DHT22;51029;51.058;13.826;2023-04-03T15:29:09;16.00;32.60
64620;DHT22;51029;51.058;13.826;2023-04-03T15:31:35;13.10;32.80
64620;DHT22;51029;51.058;13.826;2023-04-03T15:34:00;11.20;36.20
64620;DHT22;51029;51.058;13.826;2023-04-03T15:36:26;10.20;39.80
64620;DHT22;51029;51.058;13.826;2023-04-03T15:38:51;9.40;43.20
64620;DHT22;51029;51.058;13.826;2023-04-03T15:41:17;8.70;46.10
64620;DHT22;51029;51.058;13.826;2023-04-03T15:43:43;8.00;48.40
64620;DHT22;51029;51.058;13.826;2023-04-03T15:46:08;7.60;50.80
64620;DHT22;51029;51.058;13.826;2023-04-03T15:48:35;7.20;54.50
64620;DHT22;51029;51.058;13.826;2023-04-03T15:51:01;7.00;56.50
64620;DHT22;51029;51.058;13.826;2023-04-03T15:53:27;7.00;57.70
64620;DHT22;51029;51.058;13.826;2023-04-03T15:55:52;6.70;59.50
64620;DHT22;51029;51.058;13.826;2023-04-03T15:58:18;6.70;63.70
64620;DHT22;51029;51.058;13.826;2023-04-03T16:00:43;6.60;65.60
64620;DHT22;51029;51.058;13.826;2023-04-03T16:03:15;6.50;68.40
64620;DHT22;51029;51.058;13.826;2023-04-03T16:05:42;6.50;72.50
64620;DHT22;51029;51.058;13.826;2023-04-03T16:08:08;6.50;73.10
64620;DHT22;51029;51.058;13.826;2023-04-03T16:10:35;6.50;74.50
64620;DHT22;51029;51.058;13.826;2023-04-03T16:13:01;6.50;73.60
64620;DHT22;51029;51.058;13.826;2023-04-03T16:15:27;6.50;71.80
64620;DHT22;51029;51.058;13.826;2023-04-03T16:17:53;6.50;72.20
64620;DHT22;51029;51.058;13.826;2023-04-03T16:20:19;6.50;71.10
64620;DHT22;51029;51.058;13.826;2023-04-03T16:22:47;6.60;68.70
64620;DHT22;51029;51.058;13.826;2023-04-03T16:25:12;6.60;70.10
64620;DHT22;51029;51.058;13.826;2023-04-03T16:27:39;6.50;69.50
64620;DHT22;51029;51.058;13.826;2023-04-03T16:30:06;6.50;72.40
64620;DHT22;51029;51.058;13.826;2023-04-03T16:32:32;6.60;72.00
64620;DHT22;51029;51.058;13.826;2023-04-03T16:34:58;6.30;69.90
64620;DHT22;51029;51.058;13.826;2023-04-03T16:37:24;6.10;71.90
64620;DHT22;51029;51.058;13.826;2023-04-03T16:52:23;5.50;79.80
64620;DHT22;51029;51.058;13.826;2023-04-03T16:54:48;5.10;88.40
64620;DHT22;51029;51.058;13.826;2023-04-03T16:57:14;5.10;90.60
64620;DHT22;51029;51.058;13.826;2023-04-03T16:59:40;5.20;90.70
64620;DHT22;51029;51.058;13.826;2023-04-03T17:02:05;5.10;90.90
64620;DHT22;51029;51.058;13.826;2023-04-03T17:04:31;5.10;90.10
64620;DHT22;51029;51.058;13.826;2023-04-03T17:06:57;5.00;89.30
64620;DHT22;51029;51.058;13.826;2023-04-03T17:09:22;4.80;90.80
64620;DHT22;51029;51.058;13.826;2023-04-03T17:11:48;4.60;91.80